sensor_id;sensor_type;location;lat;lon;timestamp;temperature;humidity
66598;DHT22;57424;53.128;6.406;2022-10-16T00:01:08;18.50;63.30
66598;DHT22;57424;53.128;6.406;2022-10-16T00:03:34;18.50;63.30
66598;DHT22;57424;53.128;6.406;2022-10-16T00:06:00;18.50;63.30
66598;DHT22;57424;53.128;6.406;2022-10-16T00:08:27;18.50;63.30
66598;DHT22;57424;53.128;6.406;2022-10-16T00:10:52;18.50;63.30
66598;DHT22;57424;53.128;6.406;2022-10-16T00:13:18;18.50;63.30
66598;DHT22;57424;53.128;6.406;2022-10-16T00:15:45;18.50;63.30
66598;DHT22;57424;53.128;6.406;2022-10-16T00:18:12;18.50;63.20
66598;DHT22;57424;53.128;6.406;2022-10-16T00:20:39;18.50;63.20
66598;DHT22;57424;53.128;6.406;2022-10-16T00:23:05;18.40;63.10
66598;DHT22;57424;53.128;6.406;2022-10-16T00:25:31;18.50;63.30
66598;DHT22;57424;53.128;6.406;2022-10-16T00:27:59;18.40;63.20
66598;DHT22;57424;53.128;6.406;2022-10-16T00:30:25;18.50;63.20
66598;DHT22;57424;53.128;6.406;2022-10-16T00:32:52;18.50;63.20
66598;DHT22;57424;53.128;6.406;2022-10-16T00:35:18;18.40;63.20
66598;DHT22;57424;53.128;6.406;2022-10-16T00:37:44;18.50;63.20
66598;DHT22;57424;53.128;6.406;2022-10-16T00:40:10;18.40;63.10
66598;DHT22;57424;53.128;6.406;2022-10-16T00:42:35;18.50;63.20
66598;DHT22;57424;53.128;6.406;2022-10-16T00:45:02;18.40;63.20
66598;DHT22;57424;53.128;6.406;2022-10-16T00:47:32;18.40;63.10
66598;DHT22;57424;53.128;6.406;2022-10-16T00:50:24;18.40;63.10
66598;DHT22;57424;53.128;6.406;2022-10-16T00:52:52;18.40;63.80
66598;DHT22;57424;53.128;6.406;2022-10-16T00:55:19;18.40;63.20
66598;DHT22;57424;53.128;6.406;2022-10-16T00:57:45;18.40;63.10
66598;DHT22;57424;53.128;6.406;2022-10-16T01:00:17;18.40;63.10
66598;DHT22;57424;53.128;6.406;2022-10-16T01:02:43;18.40;63.10
66598;DHT22;57424;53.128;6.406;2022-10-16T01:05:09;18.40;63.10
66598;DHT22;57424;53.128;6.406;2022-10-16T01:10:26;18.40;63.10
66598;DHT22;57424;53.128;6.406;2022-10-16T01:16:00;18.40;63.10
66598;DHT22;57424;53.128;6.406;2022-10-16T01:21:02;18.30;63.00
66598;DHT22;57424;53.128;6.406;2022-10-16T01:24:07;18.40;63.10
66598;DHT22;57424;53.128;6.406;2022-10-16T01:27:06;18.30;63.00
66598;DHT22;57424;53.128;6.406;2022-10-16T01:29:42;18.30;63.00
66598;DHT22;57424;53.128;6.406;2022-10-16T01:32:13;18.40;63.10
66598;DHT22;57424;53.128;6.406;2022-10-16T01:37:37;18.30;63.00
66598;DHT22;57424;53.128;6.406;2022-10-16T01:40:07;18.30;63.10
66598;DHT22;57424;53.128;6.406;2022-10-16T01:42:37;18.30;63.00
66598;DHT22;57424;53.128;6.406;2022-10-16T01:45:05;18.30;63.00
66598;DHT22;57424;53.128;6.406;2022-10-16T01:47:33;18.30;63.00
66598;DHT22;57424;53.128;6.406;2022-10-16T01:50:00;18.30;63.10
66598;DHT22;57424;53.128;6.406;2022-10-16T01:52:28;18.30;63.00
66598;DHT22;57424;53.128;6.406;2022-10-16T01:54:56;18.30;63.00
66598;DHT22;57424;53.128;6.406;2022-10-16T01:57:24;18.30;63.00
66598;DHT22;57424;53.128;6.406;2022-10-16T01:59:54;18.30;63.10
66598;DHT22;57424;53.128;6.406;2022-10-16T02:02:22;18.30;63.00
66598;DHT22;57424;53.128;6.406;2022-10-16T02:04:57;18.30;63.00
66598;DHT22;57424;53.128;6.406;2022-10-16T02:07:23;18.30;63.00
66598;DHT22;57424;53.128;6.406;2022-10-16T02:09:49;18.30;63.00
66598;DHT22;57424;53.128;6.406;2022-10-16T02:12:30;18.30;63.00
66598;DHT22;57424;53.128;6.406;2022-10-16T02:14:56;18.30;62.90
66598;DHT22;57424;53.128;6.406;2022-10-16T02:17:23;18.30;63.00
66598;DHT22;57424;53.128;6.406;2022-10-16T02:19:51;18.30;62.90
66598;DHT22;57424;53.128;6.406;2022-10-16T02:22:39;18.30;62.90
66598;DHT22;57424;53.128;6.406;2022-10-16T02:25:29;18.30;62.90
66598;DHT22;57424;53.128;6.406;2022-10-16T02:28:17;18.30;62.90
66598;DHT22;57424;53.128;6.406;2022-10-16T02:30:57;18.30;62.90
66598;DHT22;57424;53.128;6.406;2022-10-16T02:33:25;18.20;62.90
66598;DHT22;57424;53.128;6.406;2022-10-16T02:35:51;18.20;62.90
66598;DHT22;57424;53.128;6.406;2022-10-16T02:38:18;18.20;62.90
66598;DHT22;57424;53.128;6.406;2022-10-16T02:40:45;18.30;63.60
66598;DHT22;57424;53.128;6.406;2022-10-16T02:43:11;18.30;62.90
66598;DHT22;57424;53.128;6.406;2022-10-16T02:45:37;18.20;62.90
66598;DHT22;57424;53.128;6.406;2022-10-16T02:48:02;18.20;62.80
66598;DHT22;57424;53.128;6.406;2022-10-16T02:50:28;18.30;62.90
66598;DHT22;57424;53.128;6.406;2022-10-16T02:52:54;18.20;62.80
66598;DHT22;57424;53.128;6.406;2022-10-16T02:55:19;18.20;62.80
66598;DHT22;57424;53.128;6.406;2022-10-16T02:57:45;18.20;62.90
66598;DHT22;57424;53.128;6.406;2022-10-16T03:00:13;18.20;62.90
66598;DHT22;57424;53.128;6.406;2022-10-16T03:02:39;18.20;62.80
66598;DHT22;57424;53.128;6.406;2022-10-16T03:05:05;18.20;62.80
66598;DHT22;57424;53.128;6.406;2022-10-16T03:07:31;18.20;62.80
66598;DHT22;57424;53.128;6.406;2022-10-16T03:09:56;18.20;62.80
66598;DHT22;57424;53.128;6.406;2022-10-16T03:12:28;18.20;62.80
66598;DHT22;57424;53.128;6.406;2022-10-16T03:14:55;18.20;62.80
66598;DHT22;57424;53.128;6.406;2022-10-16T03:17:22;18.20;62.80
66598;DHT22;57424;53.128;6.406;2022-10-16T03:19:48;18.20;62.80
66598;DHT22;57424;53.128;6.406;2022-10-16T03:22:13;18.20;62.80
66598;DHT22;57424;53.128;6.406;2022-10-16T03:24:39;18.20;62.80
66598;DHT22;57424;53.128;6.406;2022-10-16T03:27:05;18.20;62.80
66598;DHT22;57424;53.128;6.406;2022-10-16T03:29:31;18.20;62.80
66598;DHT22;57424;53.128;6.406;2022-10-16T03:31:58;18.20;62.80
66598;DHT22;57424;53.128;6.406;2022-10-16T03:34:24;18.10;62.80
66598;DHT22;57424;53.128;6.406;2022-10-16T03:36:49;18.20;62.80
66598;DHT22;57424;53.128;6.406;2022-10-16T03:39:15;18.10;62.70
66598;DHT22;57424;53.128;6.406;2022-10-16T03:41:40;18.20;62.80
66598;DHT22;57424;53.128;6.406;2022-10-16T03:44:06;18.20;62.80
66598;DHT22;57424;53.128;6.406;2022-10-16T03:46:32;18.20;62.80
66598;DHT22;57424;53.128;6.406;2022-10-16T03:48:57;18.10;62.70
66598;DHT22;57424;53.128;6.406;2022-10-16T03:51:23;18.20;62.80
66598;DHT22;57424;53.128;6.406;2022-10-16T03:53:48;18.10;62.70
66598;DHT22;57424;53.128;6.406;2022-10-16T03:56:14;18.10;62.70
66598;DHT22;57424;53.128;6.406;2022-10-16T03:58:39;18.10;62.70
66598;DHT22;57424;53.128;6.406;2022-10-16T04:01:05;18.10;62.70
66598;DHT22;57424;53.128;6.406;2022-10-16T04:03:31;18.20;62.70
66598;DHT22;57424;53.128;6.406;2022-10-16T04:05:56;18.10;62.70
66598;DHT22;57424;53.128;6.406;2022-10-16T04:08:22;18.20;62.70
66598;DHT22;57424;53.128;6.406;2022-10-16T04:10:48;18.10;62.70
66598;DHT22;57424;53.128;6.406;2022-10-16T04:13:13;18.10;62.70
66598;DHT22;57424;53.128;6.406;2022-10-16T04:15:39;18.10;62.70
66598;DHT22;57424;53.128;6.406;2022-10-16T04:18:05;18.10;62.70
66598;DHT22;57424;53.128;6.406;2022-10-16T04:20:31;18.10;62.70
66598;DHT22;57424;53.128;6.406;2022-10-16T04:22:56;18.10;62.70
66598;DHT22;57424;53.128;6.406;2022-10-16T04:25:22;18.10;62.70
66598;DHT22;57424;53.128;6.406;2022-10-16T04:27:48;18.10;62.70
66598;DHT22;57424;53.128;6.406;2022-10-16T04:30:14;18.10;62.70
66598;DHT22;57424;53.128;6.406;2022-10-16T04:32:39;18.10;62.70
66598;DHT22;57424;53.128;6.406;2022-10-16T04:35:05;18.10;62.70
66598;DHT22;57424;53.128;6.406;2022-10-16T04:37:31;18.10;62.60
66598;DHT22;57424;53.128;6.406;2022-10-16T04:39:57;18.10;62.60
66598;DHT22;57424;53.128;6.406;2022-10-16T04:42:22;18.10;62.70
66598;DHT22;57424;53.128;6.406;2022-10-16T04:44:48;18.10;62.60
66598;DHT22;57424;53.128;6.406;2022-10-16T04:47:13;18.10;62.70
66598;DHT22;57424;53.128;6.406;2022-10-16T04:49:39;18.10;62.60
66598;DHT22;57424;53.128;6.406;2022-10-16T04:52:05;18.10;62.70
66598;DHT22;57424;53.128;6.406;2022-10-16T04:54:31;18.10;62.70
66598;DHT22;57424;53.128;6.406;2022-10-16T04:56:56;18.10;62.70
66598;DHT22;57424;53.128;6.406;2022-10-16T04:59:23;18.10;62.60
66598;DHT22;57424;53.128;6.406;2022-10-16T05:01:49;18.10;62.70
66598;DHT22;57424;53.128;6.406;2022-10-16T05:04:15;18.10;62.60
66598;DHT22;57424;53.128;6.406;2022-10-16T05:06:41;18.10;62.60
66598;DHT22;57424;53.128;6.406;2022-10-16T05:09:07;18.10;62.60
66598;DHT22;57424;53.128;6.406;2022-10-16T05:11:34;18.10;62.60
66598;DHT22;57424;53.128;6.406;2022-10-16T05:14:00;18.10;62.60
66598;DHT22;57424;53.128;6.406;2022-10-16T05:16:25;18.10;62.60
66598;DHT22;57424;53.128;6.406;2022-10-16T05:18:52;18.00;62.60
66598;DHT22;57424;53.128;6.406;2022-10-16T05:21:18;18.00;62.60
66598;DHT22;57424;53.128;6.406;2022-10-16T05:23:43;18.00;62.60
66598;DHT22;57424;53.128;6.406;2022-10-16T05:26:09;18.10;62.60
66598;DHT22;57424;53.128;6.406;2022-10-16T05:28:35;18.00;62.60
66598;DHT22;57424;53.128;6.406;2022-10-16T05:31:07;18.00;62.60
66598;DHT22;57424;53.128;6.406;2022-10-16T05:33:33;18.00;62.60
66598;DHT22;57424;53.128;6.406;2022-10-16T05:36:07;18.00;62.60
66598;DHT22;57424;53.128;6.406;2022-10-16T05:38:33;18.00;62.50
66598;DHT22;57424;53.128;6.406;2022-10-16T05:40:59;18.00;62.60
66598;DHT22;57424;53.128;6.406;2022-10-16T05:43:24;18.00;62.60
66598;DHT22;57424;53.128;6.406;2022-10-16T05:45:54;18.00;62.60
66598;DHT22;57424;53.128;6.406;2022-10-16T05:48:20;18.00;62.60
66598;DHT22;57424;53.128;6.406;2022-10-16T05:50:46;18.00;62.60
66598;DHT22;57424;53.128;6.406;2022-10-16T05:53:11;18.00;62.60
66598;DHT22;57424;53.128;6.406;2022-10-16T05:55:37;18.00;62.60
66598;DHT22;57424;53.128;6.406;2022-10-16T05:58:02;18.00;62.60
66598;DHT22;57424;53.128;6.406;2022-10-16T06:00:28;18.00;62.60
66598;DHT22;57424;53.128;6.406;2022-10-16T06:02:53;18.00;62.60
66598;DHT22;57424;53.128;6.406;2022-10-16T06:05:19;18.00;62.60
66598;DHT22;57424;53.128;6.406;2022-10-16T06:07:44;18.00;62.60
66598;DHT22;57424;53.128;6.406;2022-10-16T06:10:10;18.00;62.60
66598;DHT22;57424;53.128;6.406;2022-10-16T06:12:35;18.00;62.60
66598;DHT22;57424;53.128;6.406;2022-10-16T06:15:01;18.00;62.60
66598;DHT22;57424;53.128;6.406;2022-10-16T06:17:26;18.00;62.60
66598;DHT22;57424;53.128;6.406;2022-10-16T06:19:52;18.00;62.60
66598;DHT22;57424;53.128;6.406;2022-10-16T06:22:17;18.00;62.50
66598;DHT22;57424;53.128;6.406;2022-10-16T06:24:43;18.00;62.50
66598;DHT22;57424;53.128;6.406;2022-10-16T06:27:08;18.00;62.60
66598;DHT22;57424;53.128;6.406;2022-10-16T06:29:34;18.00;62.60
66598;DHT22;57424;53.128;6.406;2022-10-16T06:31:59;18.00;62.60
66598;DHT22;57424;53.128;6.406;2022-10-16T06:34:25;18.00;62.60
66598;DHT22;57424;53.128;6.406;2022-10-16T06:36:50;18.00;62.60
66598;DHT22;57424;53.128;6.406;2022-10-16T06:39:16;18.00;62.50
66598;DHT22;57424;53.128;6.406;2022-10-16T06:41:42;18.00;62.60
66598;DHT22;57424;53.128;6.406;2022-10-16T06:44:07;18.00;62.60
66598;DHT22;57424;53.128;6.406;2022-10-16T06:46:33;18.00;62.60
66598;DHT22;57424;53.128;6.406;2022-10-16T06:48:59;18.00;62.60
66598;DHT22;57424;53.128;6.406;2022-10-16T06:51:25;18.00;62.60
66598;DHT22;57424;53.128;6.406;2022-10-16T06:53:53;18.00;62.60
66598;DHT22;57424;53.128;6.406;2022-10-16T06:56:24;18.00;62.70
66598;DHT22;57424;53.128;6.406;2022-10-16T06:58:50;18.10;63.00
66598;DHT22;57424;53.128;6.406;2022-10-16T07:01:18;18.00;63.50
66598;DHT22;57424;53.128;6.406;2022-10-16T07:03:45;18.10;63.30
66598;DHT22;57424;53.128;6.406;2022-10-16T07:06:13;18.10;63.50
66598;DHT22;57424;53.128;6.406;2022-10-16T07:08:40;18.10;63.50
66598;DHT22;57424;53.128;6.406;2022-10-16T07:11:08;18.10;63.50
66598;DHT22;57424;53.128;6.406;2022-10-16T07:13:38;18.10;63.30
66598;DHT22;57424;53.128;6.406;2022-10-16T07:16:08;18.20;63.40
66598;DHT22;57424;53.128;6.406;2022-10-16T07:18:35;18.10;63.30
66598;DHT22;57424;53.128;6.406;2022-10-16T07:21:10;18.10;63.30
66598;DHT22;57424;53.128;6.406;2022-10-16T07:23:36;18.20;63.30
66598;DHT22;57424;53.128;6.406;2022-10-16T07:26:03;18.20;63.30
66598;DHT22;57424;53.128;6.406;2022-10-16T07:28:29;18.20;63.40
66598;DHT22;57424;53.128;6.406;2022-10-16T07:30:54;18.20;63.40
66598;DHT22;57424;53.128;6.406;2022-10-16T07:33:20;18.20;63.40
66598;DHT22;57424;53.128;6.406;2022-10-16T07:35:51;18.20;63.40
66598;DHT22;57424;53.128;6.406;2022-10-16T07:38:17;18.20;63.40
66598;DHT22;57424;53.128;6.406;2022-10-16T07:40:43;18.20;63.50
66598;DHT22;57424;53.128;6.406;2022-10-16T07:43:09;18.20;63.50
66598;DHT22;57424;53.128;6.406;2022-10-16T07:45:34;18.30;63.50
66598;DHT22;57424;53.128;6.406;2022-10-16T07:48:00;18.30;63.50
66598;DHT22;57424;53.128;6.406;2022-10-16T07:50:25;18.30;63.50
66598;DHT22;57424;53.128;6.406;2022-10-16T07:52:51;18.30;63.50
66598;DHT22;57424;53.128;6.406;2022-10-16T07:55:17;18.30;63.50
66598;DHT22;57424;53.128;6.406;2022-10-16T07:57:43;18.30;63.50
66598;DHT22;57424;53.128;6.406;2022-10-16T08:00:09;18.30;63.50
66598;DHT22;57424;53.128;6.406;2022-10-16T08:02:39;18.30;63.50
66598;DHT22;57424;53.128;6.406;2022-10-16T08:05:05;18.30;63.50
66598;DHT22;57424;53.128;6.406;2022-10-16T08:07:31;18.30;63.50
66598;DHT22;57424;53.128;6.406;2022-10-16T08:09:57;18.30;63.60
66598;DHT22;57424;53.128;6.406;2022-10-16T08:12:24;18.30;63.60
66598;DHT22;57424;53.128;6.406;2022-10-16T08:14:49;18.40;63.70
66598;DHT22;57424;53.128;6.406;2022-10-16T08:17:15;18.40;63.80
66598;DHT22;57424;53.128;6.406;2022-10-16T08:19:44;18.30;63.80
66598;DHT22;57424;53.128;6.406;2022-10-16T08:22:10;18.40;63.90
66598;DHT22;57424;53.128;6.406;2022-10-16T08:24:35;18.40;63.90
66598;DHT22;57424;53.128;6.406;2022-10-16T08:27:02;18.40;63.90
66598;DHT22;57424;53.128;6.406;2022-10-16T08:29:28;18.40;63.90
66598;DHT22;57424;53.128;6.406;2022-10-16T08:31:53;18.50;64.00
66598;DHT22;57424;53.128;6.406;2022-10-16T08:34:19;18.50;64.00
66598;DHT22;57424;53.128;6.406;2022-10-16T08:36:45;18.50;63.90
66598;DHT22;57424;53.128;6.406;2022-10-16T08:39:10;18.50;63.90
66598;DHT22;57424;53.128;6.406;2022-10-16T08:42:08;18.50;63.80
66598;DHT22;57424;53.128;6.406;2022-10-16T08:47:40;18.60;63.80
66598;DHT22;57424;53.128;6.406;2022-10-16T08:50:11;18.60;63.90
66598;DHT22;57424;53.128;6.406;2022-10-16T08:52:41;18.60;63.80
66598;DHT22;57424;53.128;6.406;2022-10-16T08:57:51;18.60;63.90
66598;DHT22;57424;53.128;6.406;2022-10-16T09:00:17;18.70;63.90
66598;DHT22;57424;53.128;6.406;2022-10-16T09:05:54;18.70;64.00
66598;DHT22;57424;53.128;6.406;2022-10-16T09:13:53;18.80;64.10
66598;DHT22;57424;53.128;6.406;2022-10-16T09:16:24;18.80;64.10
66598;DHT22;57424;53.128;6.406;2022-10-16T09:21:41;18.80;64.10
66598;DHT22;57424;53.128;6.406;2022-10-16T09:24:14;18.80;64.10
66598;DHT22;57424;53.128;6.406;2022-10-16T09:26:41;18.80;64.10
66598;DHT22;57424;53.128;6.406;2022-10-16T09:29:10;18.80;64.10
66598;DHT22;57424;53.128;6.406;2022-10-16T09:31:36;18.80;64.10
66598;DHT22;57424;53.128;6.406;2022-10-16T09:34:04;18.90;64.20
66598;DHT22;57424;53.128;6.406;2022-10-16T09:36:39;18.90;64.10
66598;DHT22;57424;53.128;6.406;2022-10-16T09:39:09;18.90;64.10
66598;DHT22;57424;53.128;6.406;2022-10-16T09:41:41;18.90;64.20
66598;DHT22;57424;53.128;6.406;2022-10-16T09:44:26;18.90;64.10
66598;DHT22;57424;53.128;6.406;2022-10-16T09:47:12;18.90;64.10
66598;DHT22;57424;53.128;6.406;2022-10-16T09:49:49;18.90;64.10
66598;DHT22;57424;53.128;6.406;2022-10-16T09:52:15;18.90;64.00
66598;DHT22;57424;53.128;6.406;2022-10-16T09:54:55;18.90;64.00
66598;DHT22;57424;53.128;6.406;2022-10-16T09:57:21;19.00;64.10
66598;DHT22;57424;53.128;6.406;2022-10-16T09:59:49;19.00;64.00
66598;DHT22;57424;53.128;6.406;2022-10-16T10:02:18;19.00;64.00
66598;DHT22;57424;53.128;6.406;2022-10-16T10:04:54;19.00;64.00
66598;DHT22;57424;53.128;6.406;2022-10-16T10:07:39;19.00;64.00
66598;DHT22;57424;53.128;6.406;2022-10-16T10:10:20;19.00;64.00
66598;DHT22;57424;53.128;6.406;2022-10-16T10:12:46;19.00;64.00
66598;DHT22;57424;53.128;6.406;2022-10-16T10:15:13;19.00;64.00
66598;DHT22;57424;53.128;6.406;2022-10-16T10:17:49;19.00;64.00
66598;DHT22;57424;53.128;6.406;2022-10-16T10:20:29;19.00;63.90
66598;DHT22;57424;53.128;6.406;2022-10-16T10:22:58;19.00;64.00
66598;DHT22;57424;53.128;6.406;2022-10-16T10:28:36;19.10;64.00
66598;DHT22;57424;53.128;6.406;2022-10-16T10:31:22;19.10;63.90
66598;DHT22;57424;53.128;6.406;2022-10-16T10:36:40;19.10;64.00
66598;DHT22;57424;53.128;6.406;2022-10-16T10:39:25;19.10;63.90
66598;DHT22;57424;53.128;6.406;2022-10-16T10:52:43;19.10;63.90
66598;DHT22;57424;53.128;6.406;2022-10-16T11:00:42;19.10;63.90
66598;DHT22;57424;53.128;6.406;2022-10-16T11:03:32;19.10;63.90
66598;DHT22;57424;53.128;6.406;2022-10-16T11:06:06;19.10;63.90
66598;DHT22;57424;53.128;6.406;2022-10-16T11:08:37;19.10;63.90
66598;DHT22;57424;53.128;6.406;2022-10-16T11:11:14;19.20;64.00
66598;DHT22;57424;53.128;6.406;2022-10-16T11:16:39;19.20;64.00
66598;DHT22;57424;53.128;6.406;2022-10-16T11:19:13;19.20;64.00
66598;DHT22;57424;53.128;6.406;2022-10-16T11:21:46;19.20;64.00
66598;DHT22;57424;53.128;6.406;2022-10-16T11:24:48;19.20;64.10
66598;DHT22;57424;53.128;6.406;2022-10-16T11:27:20;19.20;64.10
66598;DHT22;57424;53.128;6.406;2022-10-16T11:29:58;19.20;64.20
66598;DHT22;57424;53.128;6.406;2022-10-16T11:32:31;19.20;64.30
66598;DHT22;57424;53.128;6.406;2022-10-16T11:35:06;19.20;64.30
66598;DHT22;57424;53.128;6.406;2022-10-16T11:37:39;19.30;64.40
66598;DHT22;57424;53.128;6.406;2022-10-16T11:40:28;19.30;64.40
66598;DHT22;57424;53.128;6.406;2022-10-16T11:43:13;19.30;64.40
66598;DHT22;57424;53.128;6.406;2022-10-16T11:45:42;19.30;64.40
66598;DHT22;57424;53.128;6.406;2022-10-16T11:48:41;19.30;64.30
66598;DHT22;57424;53.128;6.406;2022-10-16T11:51:33;19.30;64.30
66598;DHT22;57424;53.128;6.406;2022-10-16T11:54:20;19.30;64.30
66598;DHT22;57424;53.128;6.406;2022-10-16T11:56:48;19.30;64.30
66598;DHT22;57424;53.128;6.406;2022-10-16T12:02:17;19.30;64.20
66598;DHT22;57424;53.128;6.406;2022-10-16T12:05:35;19.40;64.30
66598;DHT22;57424;53.128;6.406;2022-10-16T12:07:49;19.40;64.20
66598;DHT22;57424;53.128;6.406;2022-10-16T12:10:26;19.40;64.20
66598;DHT22;57424;53.128;6.406;2022-10-16T12:12:52;19.40;64.20
66598;DHT22;57424;53.128;6.406;2022-10-16T12:17:51;19.40;64.20
66598;DHT22;57424;53.128;6.406;2022-10-16T12:22:50;19.40;64.10
66598;DHT22;57424;53.128;6.406;2022-10-16T12:25:31;19.40;64.10
66598;DHT22;57424;53.128;6.406;2022-10-16T12:28:00;19.40;64.10
66598;DHT22;57424;53.128;6.406;2022-10-16T12:30:29;19.40;64.00
66598;DHT22;57424;53.128;6.406;2022-10-16T12:33:00;19.40;64.00
66598;DHT22;57424;53.128;6.406;2022-10-16T12:35:29;19.40;64.00
66598;DHT22;57424;53.128;6.406;2022-10-16T12:38:08;19.40;63.90
66598;DHT22;57424;53.128;6.406;2022-10-16T12:40:38;19.40;63.90
66598;DHT22;57424;53.128;6.406;2022-10-16T12:43:42;19.40;63.90
66598;DHT22;57424;53.128;6.406;2022-10-16T12:48:33;19.40;63.90
66598;DHT22;57424;53.128;6.406;2022-10-16T12:59:25;19.40;63.80
66598;DHT22;57424;53.128;6.406;2022-10-16T13:30:12;19.40;63.70
66598;DHT22;57424;53.128;6.406;2022-10-16T13:32:39;19.30;63.70
66598;DHT22;57424;53.128;6.406;2022-10-16T13:35:22;19.30;63.70
66598;DHT22;57424;53.128;6.406;2022-10-16T13:37:48;19.30;63.70
66598;DHT22;57424;53.128;6.406;2022-10-16T13:40:22;19.40;63.70
66598;DHT22;57424;53.128;6.406;2022-10-16T13:42:49;19.30;63.70
66598;DHT22;57424;53.128;6.406;2022-10-16T13:45:23;19.30;63.70
66598;DHT22;57424;53.128;6.406;2022-10-16T13:48:00;19.30;63.70
66598;DHT22;57424;53.128;6.406;2022-10-16T13:50:26;19.30;63.70
66598;DHT22;57424;53.128;6.406;2022-10-16T13:52:52;19.30;63.60
66598;DHT22;57424;53.128;6.406;2022-10-16T13:55:28;19.30;63.60
66598;DHT22;57424;53.128;6.406;2022-10-16T13:58:05;19.40;63.70
66598;DHT22;57424;53.128;6.406;2022-10-16T14:00:30;19.30;63.50
66598;DHT22;57424;53.128;6.406;2022-10-16T14:03:16;19.30;63.50
66598;DHT22;57424;53.128;6.406;2022-10-16T14:05:48;19.30;63.50
66598;DHT22;57424;53.128;6.406;2022-10-16T14:08:14;19.40;63.50
66598;DHT22;57424;53.128;6.406;2022-10-16T14:10:40;19.40;63.50
66598;DHT22;57424;53.128;6.406;2022-10-16T14:13:07;19.30;63.40
66598;DHT22;57424;53.128;6.406;2022-10-16T14:15:35;19.30;63.40
66598;DHT22;57424;53.128;6.406;2022-10-16T14:18:02;19.40;63.40
66598;DHT22;57424;53.128;6.406;2022-10-16T14:20:32;19.40;63.30
66598;DHT22;57424;53.128;6.406;2022-10-16T14:25:45;19.40;63.20
66598;DHT22;57424;53.128;6.406;2022-10-16T14:28:20;19.30;63.10
66598;DHT22;57424;53.128;6.406;2022-10-16T14:30:57;19.30;63.10
66598;DHT22;57424;53.128;6.406;2022-10-16T14:36:10;19.30;63.00
66598;DHT22;57424;53.128;6.406;2022-10-16T14:38:41;19.30;62.90
66598;DHT22;57424;53.128;6.406;2022-10-16T14:41:07;19.30;62.90
66598;DHT22;57424;53.128;6.406;2022-10-16T14:43:36;19.30;62.80
66598;DHT22;57424;53.128;6.406;2022-10-16T14:46:27;19.30;62.80
66598;DHT22;57424;53.128;6.406;2022-10-16T14:49:13;19.30;62.70
66598;DHT22;57424;53.128;6.406;2022-10-16T14:51:41;19.30;62.70
66598;DHT22;57424;53.128;6.406;2022-10-16T14:54:10;19.30;62.60
66598;DHT22;57424;53.128;6.406;2022-10-16T14:56:51;19.30;62.50
66598;DHT22;57424;53.128;6.406;2022-10-16T14:59:39;19.30;62.30
66598;DHT22;57424;53.128;6.406;2022-10-16T15:04:48;19.20;62.40
66598;DHT22;57424;53.128;6.406;2022-10-16T15:07:13;19.20;62.50
66598;DHT22;57424;53.128;6.406;2022-10-16T15:09:39;19.30;62.50
66598;DHT22;57424;53.128;6.406;2022-10-16T15:12:05;19.30;62.50
66598;DHT22;57424;53.128;6.406;2022-10-16T15:14:30;19.30;62.50
66598;DHT22;57424;53.128;6.406;2022-10-16T15:16:56;19.30;62.50
66598;DHT22;57424;53.128;6.406;2022-10-16T15:19:21;19.30;62.50
66598;DHT22;57424;53.128;6.406;2022-10-16T15:21:47;19.30;62.40
66598;DHT22;57424;53.128;6.406;2022-10-16T15:24:13;19.30;62.40
66598;DHT22;57424;53.128;6.406;2022-10-16T15:26:39;19.30;62.40
66598;DHT22;57424;53.128;6.406;2022-10-16T15:29:05;19.40;62.40
66598;DHT22;57424;53.128;6.406;2022-10-16T15:31:31;19.40;62.30
66598;DHT22;57424;53.128;6.406;2022-10-16T15:33:57;19.40;62.30
66598;DHT22;57424;53.128;6.406;2022-10-16T15:36:34;19.30;62.20
66598;DHT22;57424;53.128;6.406;2022-10-16T15:39:03;19.30;62.10
66598;DHT22;57424;53.128;6.406;2022-10-16T15:41:29;19.40;62.20
66598;DHT22;57424;53.128;6.406;2022-10-16T15:43:54;19.30;62.10
66598;DHT22;57424;53.128;6.406;2022-10-16T15:46:21;19.30;62.10
66598;DHT22;57424;53.128;6.406;2022-10-16T15:48:48;19.30;62.10
66598;DHT22;57424;53.128;6.406;2022-10-16T15:51:15;19.30;62.10
66598;DHT22;57424;53.128;6.406;2022-10-16T15:53:41;19.30;62.10
66598;DHT22;57424;53.128;6.406;2022-10-16T15:56:08;19.30;62.10
66598;DHT22;57424;53.128;6.406;2022-10-16T15:58:34;19.30;62.10
66598;DHT22;57424;53.128;6.406;2022-10-16T16:01:00;19.30;62.20
66598;DHT22;57424;53.128;6.406;2022-10-16T16:03:27;19.30;62.20
66598;DHT22;57424;53.128;6.406;2022-10-16T16:05:53;19.30;62.20
66598;DHT22;57424;53.128;6.406;2022-10-16T16:08:19;19.30;62.30
66598;DHT22;57424;53.128;6.406;2022-10-16T16:10:45;19.20;62.20
66598;DHT22;57424;53.128;6.406;2022-10-16T16:13:11;19.30;62.30
66598;DHT22;57424;53.128;6.406;2022-10-16T16:15:40;19.30;62.30
66598;DHT22;57424;53.128;6.406;2022-10-16T16:18:06;19.30;62.30
66598;DHT22;57424;53.128;6.406;2022-10-16T16:20:32;19.30;62.40
66598;DHT22;57424;53.128;6.406;2022-10-16T16:22:57;19.20;62.40
66598;DHT22;57424;53.128;6.406;2022-10-16T16:25:23;19.20;62.40
66598;DHT22;57424;53.128;6.406;2022-10-16T16:27:48;19.30;62.50
66598;DHT22;57424;53.128;6.406;2022-10-16T16:30:14;19.20;62.40
66598;DHT22;57424;53.128;6.406;2022-10-16T16:32:39;19.20;62.50
66598;DHT22;57424;53.128;6.406;2022-10-16T16:35:05;19.20;62.60
66598;DHT22;57424;53.128;6.406;2022-10-16T16:37:31;19.20;62.60
66598;DHT22;57424;53.128;6.406;2022-10-16T16:39:57;19.20;62.60
66598;DHT22;57424;53.128;6.406;2022-10-16T16:42:26;19.20;62.70
66598;DHT22;57424;53.128;6.406;2022-10-16T16:44:52;19.20;62.70
66598;DHT22;57424;53.128;6.406;2022-10-16T16:47:18;19.20;62.70
66598;DHT22;57424;53.128;6.406;2022-10-16T16:49:44;19.20;62.80
66598;DHT22;57424;53.128;6.406;2022-10-16T16:52:11;19.20;62.80
66598;DHT22;57424;53.128;6.406;2022-10-16T16:54:37;19.20;62.80
66598;DHT22;57424;53.128;6.406;2022-10-16T16:57:02;19.20;62.80
66598;DHT22;57424;53.128;6.406;2022-10-16T16:59:29;19.20;62.90
66598;DHT22;57424;53.128;6.406;2022-10-16T17:02:01;19.20;62.90
66598;DHT22;57424;53.128;6.406;2022-10-16T17:04:26;19.20;62.90
66598;DHT22;57424;53.128;6.406;2022-10-16T17:06:55;19.20;62.90
66598;DHT22;57424;53.128;6.406;2022-10-16T17:09:21;19.20;63.00
66598;DHT22;57424;53.128;6.406;2022-10-16T17:11:47;19.20;63.00
66598;DHT22;57424;53.128;6.406;2022-10-16T17:14:14;19.20;63.00
66598;DHT22;57424;53.128;6.406;2022-10-16T17:16:40;19.20;63.00
66598;DHT22;57424;53.128;6.406;2022-10-16T17:19:14;19.20;63.00
66598;DHT22;57424;53.128;6.406;2022-10-16T17:21:40;19.20;63.00
66598;DHT22;57424;53.128;6.406;2022-10-16T17:24:06;19.20;63.00
66598;DHT22;57424;53.128;6.406;2022-10-16T17:26:32;19.20;63.00
66598;DHT22;57424;53.128;6.406;2022-10-16T17:28:59;19.20;63.00
66598;DHT22;57424;53.128;6.406;2022-10-16T17:31:34;19.20;63.00